sensor_id;sensor_type;location;lat;lon;timestamp;pressure;altitude;pressure_sealevel;temperature;humidity
44839;BME280;30576;42.098;24.876;2022-09-25T00:00:45;100129.88;;;11.50;59.23
44839;BME280;30576;42.098;24.876;2022-09-25T00:03:13;100078.31;;;11.16;59.21
44839;BME280;30576;42.098;24.876;2022-09-25T00:05:40;100110.00;;;11.18;59.60
44839;BME280;30576;42.098;24.876;2022-09-25T00:08:06;100081.84;;;11.15;59.71
44839;BME280;30576;42.098;24.876;2022-09-25T00:10:32;100097.31;;;11.46;59.59
44839;BME280;30576;42.098;24.876;2022-09-25T00:12:58;100111.38;;;11.51;59.43
44839;BME280;30576;42.098;24.876;2022-09-25T00:15:24;100114.81;;;11.58;59.72
44839;BME280;30576;42.098;24.876;2022-09-25T00:17:49;100097.09;;;11.64;59.48
44839;BME280;30576;42.098;24.876;2022-09-25T00:20:15;100117.97;;;11.85;59.38
44839;BME280;30576;42.098;24.876;2022-09-25T00:22:41;100104.94;;;11.72;59.30
44839;BME280;30576;42.098;24.876;2022-09-25T00:25:09;100119.06;;;11.71;59.36
44839;BME280;30576;42.098;24.876;2022-09-25T00:27:35;100117.28;;;11.72;59.05
44839;BME280;30576;42.098;24.876;2022-09-25T00:30:00;100130.56;;;11.67;59.46
44839;BME280;30576;42.098;24.876;2022-09-25T00:32:25;100124.56;;;11.54;59.33
44839;BME280;30576;42.098;24.876;2022-09-25T00:34:51;100104.56;;;11.32;59.37
44839;BME280;30576;42.098;24.876;2022-09-25T00:37:16;100117.78;;;11.30;60.12
44839;BME280;30576;42.098;24.876;2022-09-25T00:39:41;100127.97;;;10.80;61.87
44839;BME280;30576;42.098;24.876;2022-09-25T00:42:11;100075.41;;;10.57;61.76
44839;BME280;30576;42.098;24.876;2022-09-25T00:49:59;100093.59;;;10.86;61.16
44839;BME280;30576;42.098;24.876;2022-09-25T00:52:26;100108.41;;;10.98;61.34
44839;BME280;30576;42.098;24.876;2022-09-25T00:54:56;100078.63;;;10.88;60.54
44839;BME280;30576;42.098;24.876;2022-09-25T00:57:24;100103.06;;;11.06;61.03
44839;BME280;30576;42.098;24.876;2022-09-25T00:59:54;100107.44;;;11.10;60.07
44839;BME280;30576;42.098;24.876;2022-09-25T01:02:29;100087.28;;;11.00;60.19
44839;BME280;30576;42.098;24.876;2022-09-25T01:04:59;100069.75;;;10.96;60.36
44839;BME280;30576;42.098;24.876;2022-09-25T01:07:25;100080.44;;;10.83;61.04
44839;BME280;30576;42.098;24.876;2022-09-25T01:09:51;100107.59;;;10.95;61.47
44839;BME280;30576;42.098;24.876;2022-09-25T01:12:16;100108.56;;;10.84;62.06
44839;BME280;30576;42.098;24.876;2022-09-25T01:14:41;100097.22;;;10.76;62.64
44839;BME280;30576;42.098;24.876;2022-09-25T01:17:26;100050.63;;;10.72;61.19
44839;BME280;30576;42.098;24.876;2022-09-25T01:34:34;100083.25;;;10.65;61.70
44839;BME280;30576;42.098;24.876;2022-09-25T01:37:14;100102.31;;;10.95;60.98
44839;BME280;30576;42.098;24.876;2022-09-25T01:39:46;100082.25;;;10.75;61.77
44839;BME280;30576;42.098;24.876;2022-09-25T01:42:20;100039.44;;;10.47;61.38
44839;BME280;30576;42.098;24.876;2022-09-25T01:44:54;100078.81;;;10.67;61.41
44839;BME280;30576;42.098;24.876;2022-09-25T01:47:30;100085.00;;;10.61;62.29
44839;BME280;30576;42.098;24.876;2022-09-25T01:50:01;100071.13;;;10.44;61.78
44839;BME280;30576;42.098;24.876;2022-09-25T01:52:32;100075.53;;;10.40;61.75
44839;BME280;30576;42.098;24.876;2022-09-25T01:56:05;100111.38;;;10.64;61.34
44839;BME280;30576;42.098;24.876;2022-09-25T01:58:08;100107.09;;;10.52;61.47
44839;BME280;30576;42.098;24.876;2022-09-25T02:00:39;100099.31;;;10.32;62.56
44839;BME280;30576;42.098;24.876;2022-09-25T02:03:14;100111.50;;;10.52;62.34
44839;BME280;30576;42.098;24.876;2022-09-25T02:05:48;100073.81;;;10.30;62.09
44839;BME280;30576;42.098;24.876;2022-09-25T02:08:20;100098.50;;;10.26;61.93
44839;BME280;30576;42.098;24.876;2022-09-25T02:10:52;100095.91;;;10.18;63.01
44839;BME280;30576;42.098;24.876;2022-09-25T02:13:23;100108.16;;;10.24;62.42
44839;BME280;30576;42.098;24.876;2022-09-25T02:15:54;100113.44;;;10.22;62.65
44839;BME280;30576;42.098;24.876;2022-09-25T02:18:21;100083.53;;;10.26;62.79
44839;BME280;30576;42.098;24.876;2022-09-25T02:21:13;100121.22;;;10.45;62.79
44839;BME280;30576;42.098;24.876;2022-09-25T02:24:04;100119.47;;;10.46;62.40
44839;BME280;30576;42.098;24.876;2022-09-25T02:26:36;100115.91;;;10.48;61.80
44839;BME280;30576;42.098;24.876;2022-09-25T02:29:03;100131.81;;;10.39;62.82
44839;BME280;30576;42.098;24.876;2022-09-25T02:31:57;100109.84;;;10.38;62.25
44839;BME280;30576;42.098;24.876;2022-09-25T02:34:21;100105.53;;;10.22;62.08
44839;BME280;30576;42.098;24.876;2022-09-25T02:36:48;100118.75;;;10.17;62.48
44839;BME280;30576;42.098;24.876;2022-09-25T02:39:14;100131.94;;;10.16;63.03
44839;BME280;30576;42.098;24.876;2022-09-25T02:55:03;100118.06;;;9.86;63.75
44839;BME280;30576;42.098;24.876;2022-09-25T02:57:54;100126.72;;;10.07;63.43
44839;BME280;30576;42.098;24.876;2022-09-25T03:00:20;100092.66;;;9.71;63.21
44839;BME280;30576;42.098;24.876;2022-09-25T03:02:52;100109.41;;;9.58;63.46
44839;BME280;30576;42.098;24.876;2022-09-25T03:05:19;100091.94;;;9.35;61.92
44839;BME280;30576;42.098;24.876;2022-09-25T03:07:45;100120.84;;;9.55;62.23
44839;BME280;30576;42.098;24.876;2022-09-25T03:10:31;100105.00;;;9.64;62.65
44839;BME280;30576;42.098;24.876;2022-09-25T03:13:15;100133.13;;;9.53;62.86
44839;BME280;30576;42.098;24.876;2022-09-25T03:15:44;100121.63;;;9.71;62.60
44839;BME280;30576;42.098;24.876;2022-09-25T03:18:11;100122.50;;;9.78;62.87
44839;BME280;30576;42.098;24.876;2022-09-25T03:20:38;100048.09;;;9.22;62.86
44839;BME280;30576;42.098;24.876;2022-09-25T03:23:04;100101.50;;;9.64;63.18
44839;BME280;30576;42.098;24.876;2022-09-25T03:25:30;100140.09;;;9.66;63.06
44839;BME280;30576;42.098;24.876;2022-09-25T03:27:55;100140.09;;;9.62;63.00
44839;BME280;30576;42.098;24.876;2022-09-25T03:30:20;100143.66;;;9.55;62.90
44839;BME280;30576;42.098;24.876;2022-09-25T03:32:46;100129.59;;;9.53;63.19
44839;BME280;30576;42.098;24.876;2022-09-25T03:35:11;100145.44;;;9.39;63.46
44839;BME280;30576;42.098;24.876;2022-09-25T03:37:36;100131.34;;;9.63;62.78
44839;BME280;30576;42.098;24.876;2022-09-25T03:40:02;100129.59;;;9.53;63.05
44839;BME280;30576;42.098;24.876;2022-09-25T03:42:27;100129.63;;;9.51;63.29
44839;BME280;30576;42.098;24.876;2022-09-25T03:44:53;100137.59;;;9.25;63.95
44839;BME280;30576;42.098;24.876;2022-09-25T03:47:18;100133.25;;;9.13;64.79
44839;BME280;30576;42.098;24.876;2022-09-25T03:49:43;100137.59;;;9.28;64.35
44839;BME280;30576;42.098;24.876;2022-09-25T03:52:09;100106.09;;;8.83;65.29
44839;BME280;30576;42.098;24.876;2022-09-25T03:54:37;100082.44;;;8.78;65.26
44839;BME280;30576;42.098;24.876;2022-09-25T03:57:02;100118.31;;;9.13;65.13
44839;BME280;30576;42.098;24.876;2022-09-25T03:59:27;100106.94;;;9.14;65.21
44839;BME280;30576;42.098;24.876;2022-09-25T04:01:53;100102.53;;;9.21;64.91
44839;BME280;30576;42.098;24.876;2022-09-25T04:04:19;100088.53;;;9.08;64.92
44839;BME280;30576;42.098;24.876;2022-09-25T04:06:44;100108.63;;;9.26;65.49
44839;BME280;30576;42.098;24.876;2022-09-25T04:09:10;100116.47;;;9.46;64.73
44839;BME280;30576;42.098;24.876;2022-09-25T04:11:35;100122.69;;;9.31;64.80
44839;BME280;30576;42.098;24.876;2022-09-25T04:14:03;100122.69;;;9.28;64.77
44839;BME280;30576;42.098;24.876;2022-09-25T04:16:28;100112.19;;;9.19;64.72
44839;BME280;30576;42.098;24.876;2022-09-25T04:18:54;100125.28;;;9.44;64.85
44839;BME280;30576;42.098;24.876;2022-09-25T04:21:19;100133.22;;;9.33;64.89
44839;BME280;30576;42.098;24.876;2022-09-25T04:23:45;100143.75;;;9.31;64.75
44839;BME280;30576;42.098;24.876;2022-09-25T04:26:29;100111.31;;;9.06;64.94
44839;BME280;30576;42.098;24.876;2022-09-25T04:28:55;100103.44;;;9.02;65.32
44839;BME280;30576;42.098;24.876;2022-09-25T04:31:20;100132.34;;;9.17;65.49
44839;BME280;30576;42.098;24.876;2022-09-25T04:33:46;100125.31;;;9.28;65.71
44839;BME280;30576;42.098;24.876;2022-09-25T04:36:13;100102.53;;;9.20;65.30
44839;BME280;30576;42.098;24.876;2022-09-25T04:38:38;100093.78;;;9.08;65.53
44839;BME280;30576;42.098;24.876;2022-09-25T04:41:04;100125.34;;;9.24;66.00
44839;BME280;30576;42.098;24.876;2022-09-25T04:43:30;100140.25;;;9.11;65.92
44839;BME280;30576;42.098;24.876;2022-09-25T04:46:07;100120.97;;;9.15;66.37
44839;BME280;30576;42.098;24.876;2022-09-25T04:48:33;100127.94;;;9.33;66.56
44839;BME280;30576;42.098;24.876;2022-09-25T04:50:59;100116.53;;;9.29;66.45
44839;BME280;30576;42.098;24.876;2022-09-25T04:53:25;100120.88;;;9.41;66.86
44839;BME280;30576;42.098;24.876;2022-09-25T04:55:52;100104.25;;;9.35;65.40
44839;BME280;30576;42.098;24.876;2022-09-25T04:58:19;100116.53;;;9.28;66.98
44839;BME280;30576;42.098;24.876;2022-09-25T05:00:45;100120.81;;;9.61;65.31
44839;BME280;30576;42.098;24.876;2022-09-25T05:03:11;100134.75;;;9.80;65.62
44839;BME280;30576;42.098;24.876;2022-09-25T05:05:36;100142.66;;;9.85;64.95
44839;BME280;30576;42.098;24.876;2022-09-25T05:08:02;100148.75;;;9.98;64.65
44839;BME280;30576;42.098;24.876;2022-09-25T05:10:30;100149.44;;;10.29;63.97
44839;BME280;30576;42.098;24.876;2022-09-25T05:12:57;100130.22;;;10.10;64.68
44839;BME280;30576;42.098;24.876;2022-09-25T05:15:24;100167.75;;;10.54;63.63
44839;BME280;30576;42.098;24.876;2022-09-25T05:17:58;100157.09;;;10.66;63.24
44839;BME280;30576;42.098;24.876;2022-09-25T05:20:23;100152.63;;;10.76;63.24
44839;BME280;30576;42.098;24.876;2022-09-25T05:22:52;100167.59;;;10.75;63.27
44839;BME280;30576;42.098;24.876;2022-09-25T05:25:18;100145.69;;;10.61;63.65
44839;BME280;30576;42.098;24.876;2022-09-25T05:27:44;100163.06;;;10.88;62.08
44839;BME280;30576;42.098;24.876;2022-09-25T05:30:09;100175.34;;;10.94;62.19
44839;BME280;30576;42.098;24.876;2022-09-25T05:32:35;100174.25;;;11.15;62.38
44839;BME280;30576;42.098;24.876;2022-09-25T05:35:00;100138.16;;;11.19;61.24
44839;BME280;30576;42.098;24.876;2022-09-25T05:37:28;100169.50;;;11.51;61.30
44839;BME280;30576;42.098;24.876;2022-09-25T05:39:53;100187.97;;;11.53;60.45
44839;BME280;30576;42.098;24.876;2022-09-25T05:42:18;100180.75;;;11.67;60.78
44839;BME280;30576;42.098;24.876;2022-09-25T05:44:44;100161.88;;;11.99;58.80
44839;BME280;30576;42.098;24.876;2022-09-25T05:47:09;100184.38;;;12.31;58.86
44839;BME280;30576;42.098;24.876;2022-09-25T05:49:35;100141.28;;;12.23;58.21
44839;BME280;30576;42.098;24.876;2022-09-25T05:52:00;100187.72;;;12.44;57.98
44839;BME280;30576;42.098;24.876;2022-09-25T05:54:26;100192.16;;;12.42;58.21
44839;BME280;30576;42.098;24.876;2022-09-25T05:56:51;100191.28;;;12.40;58.21
44839;BME280;30576;42.098;24.876;2022-09-25T05:59:16;100197.53;;;12.36;57.19
44839;BME280;30576;42.098;24.876;2022-09-25T06:01:42;100187.63;;;13.05;56.69
44839;BME280;30576;42.098;24.876;2022-09-25T06:04:07;100163.63;;;13.13;55.15
44839;BME280;30576;42.098;24.876;2022-09-25T06:06:33;100180.13;;;13.30;55.63
44839;BME280;30576;42.098;24.876;2022-09-25T06:08:58;100168.44;;;13.87;55.21
44839;BME280;30576;42.098;24.876;2022-09-25T06:11:24;100164.19;;;14.19;53.95
44839;BME280;30576;42.098;24.876;2022-09-25T06:13:50;100165.03;;;14.62;53.99
44839;BME280;30576;42.098;24.876;2022-09-25T06:16:16;100127.88;;;14.95;51.74
44839;BME280;30576;42.098;24.876;2022-09-25T06:18:43;100145.75;;;15.22;51.66
44839;BME280;30576;42.098;24.876;2022-09-25T06:21:09;100154.25;;;15.02;49.97
44839;BME280;30576;42.098;24.876;2022-09-25T06:23:34;100167.09;;;14.85;50.68
44839;BME280;30576;42.098;24.876;2022-09-25T06:26:03;100170.78;;;14.79;51.94
44839;BME280;30576;42.098;24.876;2022-09-25T06:28:29;100164.56;;;15.15;51.12
44839;BME280;30576;42.098;24.876;2022-09-25T06:30:58;100138.72;;;15.21;49.00
44839;BME280;30576;42.098;24.876;2022-09-25T06:33:23;100166.78;;;14.97;49.41
44839;BME280;30576;42.098;24.876;2022-09-25T06:35:49;100136.88;;;14.91;50.02
44839;BME280;30576;42.098;24.876;2022-09-25T06:38:15;100129.38;;;15.38;48.66
44839;BME280;30576;42.098;24.876;2022-09-25T06:40:41;100150.22;;;16.16;48.09
44839;BME280;30576;42.098;24.876;2022-09-25T06:43:12;100154.72;;;16.42;47.49
44839;BME280;30576;42.098;24.876;2022-09-25T06:45:38;100140.59;;;16.67;45.87
44839;BME280;30576;42.098;24.876;2022-09-25T06:48:09;100113.22;;;17.15;45.00
44839;BME280;30576;42.098;24.876;2022-09-25T06:53:05;100092.25;;;16.79;43.40
44839;BME280;30576;42.098;24.876;2022-09-25T06:55:31;100130.75;;;17.23;43.40
44839;BME280;30576;42.098;24.876;2022-09-25T06:57:57;100101.09;;;17.56;43.43
44839;BME280;30576;42.098;24.876;2022-09-25T07:00:23;100139.88;;;17.89;41.61
44839;BME280;30576;42.098;24.876;2022-09-25T07:02:48;100106.22;;;18.09;40.84
44839;BME280;30576;42.098;24.876;2022-09-25T07:05:32;100117.56;;;18.36;40.93
44839;BME280;30576;42.098;24.876;2022-09-25T07:07:59;100077.91;;;18.05;40.14
44839;BME280;30576;42.098;24.876;2022-09-25T07:10:24;100123.88;;;18.35;40.12
44839;BME280;30576;42.098;24.876;2022-09-25T07:12:49;100110.78;;;18.29;41.16
44839;BME280;30576;42.098;24.876;2022-09-25T07:15:15;100094.09;;;18.67;39.58
44839;BME280;30576;42.098;24.876;2022-09-25T07:17:42;100090.28;;;18.72;38.47
44839;BME280;30576;42.098;24.876;2022-09-25T07:20:08;100133.44;;;19.06;39.81
44839;BME280;30576;42.098;24.876;2022-09-25T07:22:37;100101.00;;;19.13;39.64
44839;BME280;30576;42.098;24.876;2022-09-25T07:25:02;100110.97;;;19.51;38.14
44839;BME280;30576;42.098;24.876;2022-09-25T07:27:28;100108.25;;;19.11;38.40
44839;BME280;30576;42.098;24.876;2022-09-25T07:29:54;100134.50;;;18.79;40.36
44839;BME280;30576;42.098;24.876;2022-09-25T07:32:20;100131.03;;;18.77;40.36
44839;BME280;30576;42.098;24.876;2022-09-25T07:34:46;100131.94;;;18.56;41.45
44839;BME280;30576;42.098;24.876;2022-09-25T07:37:14;100130.22;;;18.98;41.44
44839;BME280;30576;42.098;24.876;2022-09-25T07:39:40;100119.78;;;19.12;39.61
44839;BME280;30576;42.098;24.876;2022-09-25T07:42:05;100127.50;;;18.77;39.57
44839;BME280;30576;42.098;24.876;2022-09-25T07:44:31;100141.38;;;18.87;39.59
44839;BME280;30576;42.098;24.876;2022-09-25T07:46:57;100122.97;;;18.79;39.99
44839;BME280;30576;42.098;24.876;2022-09-25T07:49:25;100108.88;;;18.75;40.75
44839;BME280;30576;42.098;24.876;2022-09-25T07:51:51;100095.53;;;18.96;39.47
44839;BME280;30576;42.098;24.876;2022-09-25T07:54:16;100119.41;;;19.21;39.24
44839;BME280;30576;42.098;24.876;2022-09-25T07:56:42;100083.78;;;19.00;39.94
44839;BME280;30576;42.098;24.876;2022-09-25T07:59:07;100114.81;;;19.25;39.56
44839;BME280;30576;42.098;24.876;2022-09-25T08:01:33;100097.53;;;19.32;39.57
44839;BME280;30576;42.098;24.876;2022-09-25T08:03:58;100094.84;;;19.32;39.21
44839;BME280;30576;42.098;24.876;2022-09-25T08:06:24;100090.13;;;18.98;38.57
44839;BME280;30576;42.098;24.876;2022-09-25T08:08:49;100066.09;;;19.77;38.04
44839;BME280;30576;42.098;24.876;2022-09-25T08:11:15;100104.47;;;20.33;37.28
44839;BME280;30576;42.098;24.876;2022-09-25T08:13:42;100084.00;;;20.49;35.62
44839;BME280;30576;42.098;24.876;2022-09-25T08:16:12;100083.00;;;20.52;36.05
44839;BME280;30576;42.098;24.876;2022-09-25T08:18:39;100089.25;;;21.05;35.13
44839;BME280;30576;42.098;24.876;2022-09-25T08:21:06;100092.41;;;20.61;34.95
44839;BME280;30576;42.098;24.876;2022-09-25T08:23:32;100083.44;;;20.43;37.07
44839;BME280;30576;42.098;24.876;2022-09-25T08:25:58;100030.72;;;20.43;35.40
44839;BME280;30576;42.098;24.876;2022-09-25T08:28:24;100065.84;;;20.73;35.38
44839;BME280;30576;42.098;24.876;2022-09-25T08:30:50;100089.88;;;21.27;34.86
44839;BME280;30576;42.098;24.876;2022-09-25T08:33:16;100067.34;;;21.30;34.40
44839;BME280;30576;42.098;24.876;2022-09-25T08:35:42;100068.44;;;21.43;35.07
44839;BME280;30576;42.098;24.876;2022-09-25T08:38:08;100083.31;;;21.82;34.04
44839;BME280;30576;42.098;24.876;2022-09-25T08:40:54;100061.50;;;21.57;36.00
44839;BME280;30576;42.098;24.876;2022-09-25T08:43:23;100052.34;;;21.93;33.13
44839;BME280;30576;42.098;24.876;2022-09-25T08:45:50;100041.09;;;21.37;36.47
44839;BME280;30576;42.098;24.876;2022-09-25T08:48:50;100044.47;;;21.40;34.74
44839;BME280;30576;42.098;24.876;2022-09-25T08:51:46;100071.91;;;21.12;36.58
44839;BME280;30576;42.098;24.876;2022-09-25T08:54:23;100049.16;;;20.32;35.08
44839;BME280;30576;42.098;24.876;2022-09-25T08:56:51;100035.31;;;20.41;38.36
44839;BME280;30576;42.098;24.876;2022-09-25T08:59:25;100059.03;;;20.49;36.23
44839;BME280;30576;42.098;24.876;2022-09-25T09:01:59;100070.19;;;20.76;35.20
44839;BME280;30576;42.098;24.876;2022-09-25T09:04:28;100022.91;;;21.08;34.93
44839;BME280;30576;42.098;24.876;2022-09-25T09:09:44;100043.50;;;21.08;35.72
44839;BME280;30576;42.098;24.876;2022-09-25T09:12:16;100050.66;;;21.25;34.95
44839;BME280;30576;42.098;24.876;2022-09-25T09:14:47;100028.72;;;21.01;34.83
44839;BME280;30576;42.098;24.876;2022-09-25T09:19:45;100044.34;;;21.26;34.29
44839;BME280;30576;42.098;24.876;2022-09-25T09:22:13;99994.09;;;20.96;34.00
44839;BME280;30576;42.098;24.876;2022-09-25T09:25:02;100064.34;;;21.36;34.79
44839;BME280;30576;42.098;24.876;2022-09-25T09:30:28;100040.16;;;21.20;34.77
44839;BME280;30576;42.098;24.876;2022-09-25T09:33:07;100049.16;;;21.19;34.21
44839;BME280;30576;42.098;24.876;2022-09-25T09:38:45;100038.84;;;21.45;34.30
44839;BME280;30576;42.098;24.876;2022-09-25T09:49:38;99996.66;;;21.47;35.85
44839;BME280;30576;42.098;24.876;2022-09-25T09:52:27;100005.66;;;21.63;36.10
44839;BME280;30576;42.098;24.876;2022-09-25T09:54:59;99988.72;;;21.45;34.21
44839;BME280;30576;42.098;24.876;2022-09-25T09:57:29;99949.38;;;21.13;34.89
44839;BME280;30576;42.098;24.876;2022-09-25T10:00:13;99978.91;;;21.28;34.27
44839;BME280;30576;42.098;24.876;2022-09-25T10:05:35;99992.66;;;21.22;33.68
44839;BME280;30576;42.098;24.876;2022-09-25T10:08:02;99930.31;;;20.85;34.55
44839;BME280;30576;42.098;24.876;2022-09-25T10:10:37;99981.72;;;21.43;33.78
44839;BME280;30576;42.098;24.876;2022-09-25T10:13:07;99967.16;;;21.47;33.50
44839;BME280;30576;42.098;24.876;2022-09-25T10:15:51;99978.97;;;21.76;34.00
44839;BME280;30576;42.098;24.876;2022-09-25T10:18:20;99980.94;;;21.89;32.63
44839;BME280;30576;42.098;24.876;2022-09-25T10:23:49;99968.31;;;22.21;33.26
44839;BME280;30576;42.098;24.876;2022-09-25T10:26:31;99952.66;;;22.13;32.94
44839;BME280;30576;42.098;24.876;2022-09-25T10:29:00;99960.94;;;21.94;32.82
44839;BME280;30576;42.098;24.876;2022-09-25T10:34:41;99912.38;;;21.67;32.81
44839;BME280;30576;42.098;24.876;2022-09-25T10:37:19;99896.44;;;21.80;32.92
44839;BME280;30576;42.098;24.876;2022-09-25T10:46:12;99916.50;;;21.89;33.48
44839;BME280;30576;42.098;24.876;2022-09-25T10:48:38;99909.06;;;21.94;33.53
44839;BME280;30576;42.098;24.876;2022-09-25T10:51:23;99932.31;;;22.09;33.89
44839;BME280;30576;42.098;24.876;2022-09-25T10:53:51;99935.81;;;22.26;33.87
44839;BME280;30576;42.098;24.876;2022-09-25T10:56:23;99924.31;;;22.24;34.14
44839;BME280;30576;42.098;24.876;2022-09-25T10:58:59;99919.41;;;22.61;33.60
44839;BME280;30576;42.098;24.876;2022-09-25T11:01:37;99908.69;;;22.30;33.85
44839;BME280;30576;42.098;24.876;2022-09-25T11:06:49;99913.06;;;22.47;35.08
44839;BME280;30576;42.098;24.876;2022-09-25T11:09:24;99911.91;;;22.37;34.95
44839;BME280;30576;42.098;24.876;2022-09-25T11:11:53;99862.69;;;22.06;35.40
44839;BME280;30576;42.098;24.876;2022-09-25T11:14:34;99891.72;;;22.44;34.86
44839;BME280;30576;42.098;24.876;2022-09-25T11:17:03;99885.34;;;22.76;34.76
44839;BME280;30576;42.098;24.876;2022-09-25T11:19:37;99887.34;;;22.72;33.69
44839;BME280;30576;42.098;24.876;2022-09-25T11:22:32;99853.16;;;22.45;35.14
44839;BME280;30576;42.098;24.876;2022-09-25T11:28:18;99858.53;;;23.17;34.13
44839;BME280;30576;42.098;24.876;2022-09-25T11:38:00;99872.41;;;23.38;34.58
44839;BME280;30576;42.098;24.876;2022-09-25T11:43:07;99854.72;;;23.62;33.51
44839;BME280;30576;42.098;24.876;2022-09-25T11:45:57;99859.97;;;23.77;34.03
44839;BME280;30576;42.098;24.876;2022-09-25T11:49:00;99847.09;;;23.95;33.46
44839;BME280;30576;42.098;24.876;2022-09-25T11:58:03;99844.81;;;23.89;34.56
44839;BME280;30576;42.098;24.876;2022-09-25T12:00:43;99810.91;;;23.72;34.38
44839;BME280;30576;42.098;24.876;2022-09-25T12:08:46;99820.69;;;23.88;32.96
44839;BME280;30576;42.098;24.876;2022-09-25T12:11:34;99795.78;;;23.57;34.27
44839;BME280;30576;42.098;24.876;2022-09-25T12:20:17;99786.56;;;23.74;33.63
44839;BME280;30576;42.098;24.876;2022-09-25T12:25:15;99808.00;;;24.16;34.55
44839;BME280;30576;42.098;24.876;2022-09-25T12:30:29;99805.28;;;24.54;33.46
44839;BME280;30576;42.098;24.876;2022-09-25T12:44:02;99767.91;;;24.24;34.64
44839;BME280;30576;42.098;24.876;2022-09-25T12:46:17;99764.22;;;24.25;33.70
44839;BME280;30576;42.098;24.876;2022-09-25T12:48:53;99764.78;;;24.30;33.33
44839;BME280;30576;42.098;24.876;2022-09-25T12:51:43;99734.94;;;24.07;34.34
44839;BME280;30576;42.098;24.876;2022-09-25T13:00:24;99724.91;;;24.22;34.54
44839;BME280;30576;42.098;24.876;2022-09-25T13:03:00;99708.31;;;24.03;35.29
44839;BME280;30576;42.098;24.876;2022-09-25T13:05:38;99723.56;;;24.28;34.00
44839;BME280;30576;42.098;24.876;2022-09-25T13:08:20;99759.25;;;24.44;33.75
44839;BME280;30576;42.098;24.876;2022-09-25T13:11:09;99754.38;;;24.49;33.64
44839;BME280;30576;42.098;24.876;2022-09-25T13:13:46;99741.19;;;24.21;33.91
44839;BME280;30576;42.098;24.876;2022-09-25T13:16:13;99725.00;;;24.08;33.41
44839;BME280;30576;42.098;24.876;2022-09-25T13:18:46;99708.06;;;24.19;33.80
44839;BME280;30576;42.098;24.876;2022-09-25T13:21:29;99751.06;;;24.59;32.88
44839;BME280;30576;42.098;24.876;2022-09-25T13:23:56;99724.31;;;24.43;33.67
44839;BME280;30576;42.098;24.876;2022-09-25T13:26:24;99736.84;;;24.31;33.76
44839;BME280;30576;42.098;24.876;2022-09-25T13:29:39;99728.53;;;24.47;32.85
44839;BME280;30576;42.098;24.876;2022-09-25T13:39:01;99722.06;;;24.62;33.53
44839;BME280;30576;42.098;24.876;2022-09-25T13:48:34;99696.63;;;24.28;32.95
44839;BME280;30576;42.098;24.876;2022-09-25T13:54:26;99680.78;;;24.23;33.26
44839;BME280;30576;42.098;24.876;2022-09-25T13:56:52;99716.19;;;24.56;33.47
44839;BME280;30576;42.098;24.876;2022-09-25T13:59:33;99701.34;;;24.63;33.66
44839;BME280;30576;42.098;24.876;2022-09-25T14:04:57;99659.91;;;24.51;33.57
44839;BME280;30576;42.098;24.876;2022-09-25T14:07:25;99669.97;;;24.49;33.59
44839;BME280;30576;42.098;24.876;2022-09-25T14:09:55;99669.09;;;24.48;33.36
44839;BME280;30576;42.098;24.876;2022-09-25T14:12:37;99680.25;;;24.81;33.42
44839;BME280;30576;42.098;24.876;2022-09-25T14:18:37;99672.53;;;24.63;33.48
44839;BME280;30576;42.098;24.876;2022-09-25T14:21:05;99677.41;;;24.58;34.02
44839;BME280;30576;42.098;24.876;2022-09-25T14:23:55;99676.38;;;24.72;33.73
44839;BME280;30576;42.098;24.876;2022-09-25T14:26:26;99674.88;;;24.92;33.00
44839;BME280;30576;42.098;24.876;2022-09-25T14:28:56;99675.31;;;24.75;33.51
44839;BME280;30576;42.098;24.876;2022-09-25T14:37:18;99670.06;;;24.60;33.44
44839;BME280;30576;42.098;24.876;2022-09-25T14:42:57;99664.16;;;24.42;34.14
44839;BME280;30576;42.098;24.876;2022-09-25T14:45:45;99664.91;;;24.44;34.45
44839;BME280;30576;42.098;24.876;2022-09-25T14:48:18;99629.03;;;24.31;33.99
44839;BME280;30576;42.098;24.876;2022-09-25T14:50:59;99637.94;;;24.44;33.71
44839;BME280;30576;42.098;24.876;2022-09-25T14:53:33;99633.34;;;24.71;33.78
44839;BME280;30576;42.098;24.876;2022-09-25T14:56:01;99641.25;;;24.85;33.53
44839;BME280;30576;42.098;24.876;2022-09-25T14:58:30;99635.66;;;24.64;33.13
44839;BME280;30576;42.098;24.876;2022-09-25T15:01:22;99632.16;;;24.75;33.22
44839;BME280;30576;42.098;24.876;2022-09-25T15:03:50;99657.88;;;24.55;34.46
44839;BME280;30576;42.098;24.876;2022-09-25T15:06:32;99608.16;;;24.22;35.62
44839;BME280;30576;42.098;24.876;2022-09-25T15:08:58;99603.53;;;24.11;34.71
44839;BME280;30576;42.098;24.876;2022-09-25T15:11:38;99656.25;;;24.52;34.72
44839;BME280;30576;42.098;24.876;2022-09-25T15:14:16;99628.28;;;24.29;35.29
44839;BME280;30576;42.098;24.876;2022-09-25T15:16:43;99659.44;;;24.33;35.06
44839;BME280;30576;42.098;24.876;2022-09-25T15:19:34;99637.31;;;23.91;36.19
44839;BME280;30576;42.098;24.876;2022-09-25T15:22:07;99649.56;;;24.08;36.74
44839;BME280;30576;42.098;24.876;2022-09-25T15:24:34;99646.75;;;24.09;36.91
44839;BME280;30576;42.098;24.876;2022-09-25T15:27:05;99592.69;;;23.74;35.78
44839;BME280;30576;42.098;24.876;2022-09-25T15:29:41;99623.28;;;23.99;35.70
44839;BME280;30576;42.098;24.876;2022-09-25T15:32:21;99604.53;;;23.97;35.85
44839;BME280;30576;42.098;24.876;2022-09-25T15:34:47;99611.22;;;23.78;36.82
44839;BME280;30576;42.098;24.876;2022-09-25T15:37:17;99650.88;;;23.89;37.17
44839;BME280;30576;42.098;24.876;2022-09-25T15:39:45;99624.16;;;23.73;37.27
44839;BME280;30576;42.098;24.876;2022-09-25T15:42:12;99611.13;;;23.41;38.16